createdAt,value
2022-11-23T00:00:45.540Z,22.27
2022-11-23T00:03:16.134Z,23.17
2022-11-23T00:05:43.434Z,24.67
2022-11-23T00:08:10.599Z,23.87
2022-11-23T00:10:37.843Z,25.53
2022-11-23T00:13:05.228Z,25.10
2022-11-23T00:15:32.506Z,22.60
2022-11-23T00:18:02.818Z,25.13
2022-11-23T00:20:30.054Z,24.37
2022-11-23T00:22:57.433Z,24.60
2022-11-23T00:25:24.764Z,25.33
2022-11-23T00:27:51.908Z,24.57
2022-11-23T00:30:19.228Z,24.33
2022-11-23T00:32:46.611Z,25.10
2022-11-23T00:35:13.876Z,23.67
2022-11-23T00:37:41.110Z,22.33
2022-11-23T00:40:08.783Z,23.07
2022-11-23T00:42:38.291Z,22.83
2022-11-23T00:45:06.018Z,23.43
2022-11-23T00:47:33.200Z,22.00
2022-11-23T00:50:00.649Z,22.30
2022-11-23T00:52:46.745Z,22.60
2022-11-23T00:55:13.970Z,21.70
2022-11-23T00:58:00.892Z,23.07
2022-11-23T01:00:28.711Z,23.03
2022-11-23T01:02:57.673Z,23.53
2022-11-23T01:05:24.879Z,21.33
2022-11-23T01:07:54.647Z,23.60
2022-11-23T01:10:21.924Z,21.83
2022-11-23T01:12:49.143Z,21.87
2022-11-23T01:15:16.423Z,24.53
2022-11-23T01:17:43.777Z,20.83
2022-11-23T01:20:11.173Z,21.47
2022-11-23T01:22:40.729Z,23.23
2022-11-23T01:25:09.745Z,24.40
2022-11-23T01:27:39.139Z,22.47
2022-11-23T01:30:06.777Z,21.50
2022-11-23T01:32:34.020Z,24.63
2022-11-23T01:35:01.261Z,21.90
2022-11-23T01:37:28.758Z,20.50
2022-11-23T01:39:55.987Z,21.70
2022-11-23T01:42:23.174Z,23.87
2022-11-23T01:44:51.870Z,23.83
2022-11-23T01:47:19.144Z,22.80
2022-11-23T01:49:50.312Z,23.50
2022-11-23T01:52:20.516Z,25.13
2022-11-23T01:54:52.393Z,23.97
2022-11-23T01:57:23.302Z,22.90
2022-11-23T01:59:50.725Z,23.27
2022-11-23T02:02:18.264Z,27.33
2022-11-23T02:05:04.112Z,24.27
2022-11-23T02:07:32.022Z,23.67
2022-11-23T02:09:59.713Z,24.37
2022-11-23T02:12:27.083Z,23.47
2022-11-23T02:14:54.687Z,20.83
2022-11-23T02:17:22.125Z,23.70
2022-11-23T02:19:49.860Z,24.17
2022-11-23T02:22:22.892Z,24.37
2022-11-23T02:24:53.496Z,21.87
2022-11-23T02:27:21.271Z,23.00
2022-11-23T02:29:51.379Z,22.47
2022-11-23T02:32:23.314Z,24.33
2022-11-23T02:34:50.797Z,24.43
2022-11-23T02:37:19.846Z,24.63
2022-11-23T02:39:48.861Z,23.67
2022-11-23T02:42:16.175Z,23.87
2022-11-23T02:45:02.372Z,27.57
2022-11-23T02:47:29.747Z,23.67
2022-11-23T02:49:57.076Z,27.17
2022-11-23T02:52:24.395Z,24.50
2022-11-23T02:54:51.560Z,22.53
2022-11-23T02:57:19.106Z,24.97
2022-11-23T02:59:47.128Z,25.70
2022-11-23T03:02:14.414Z,22.87
2022-11-23T03:04:41.641Z,26.67
2022-11-23T03:07:09.104Z,27.33
2022-11-23T03:09:36.359Z,25.80
2022-11-23T03:12:03.870Z,23.47
2022-11-23T03:14:31.167Z,22.47
2022-11-23T03:17:01.786Z,24.67
2022-11-23T03:19:34.541Z,25.20
2022-11-23T03:22:02.344Z,24.33
2022-11-23T03:24:31.757Z,24.77
2022-11-23T03:27:00.971Z,26.23
2022-11-23T03:29:29.263Z,27.30
2022-11-23T03:31:58.720Z,24.20
2022-11-23T03:34:26.569Z,24.10
2022-11-23T03:36:53.774Z,27.40
2022-11-23T03:39:21.180Z,25.13
2022-11-23T03:41:51.522Z,26.47
2022-11-23T03:44:21.514Z,24.27
2022-11-23T03:46:50.600Z,23.43
2022-11-23T03:49:18.117Z,23.90
2022-11-23T03:51:45.720Z,26.20
2022-11-23T03:54:14.471Z,24.83
2022-11-23T03:56:41.812Z,27.43
2022-11-23T03:59:09.180Z,24.40
2022-11-23T04:01:36.460Z,25.47
2022-11-23T04:04:07.040Z,28.33
2022-11-23T04:06:52.945Z,21.77
2022-11-23T04:09:24.811Z,25.37
2022-11-23T04:12:04.607Z,23.73
2022-11-23T04:14:32.537Z,25.17
2022-11-23T04:17:02.031Z,24.37
2022-11-23T04:19:30.493Z,28.50
2022-11-23T04:21:58.807Z,23.10
2022-11-23T04:24:28.770Z,25.27
2022-11-23T04:26:59.165Z,25.77
2022-11-23T04:29:26.551Z,22.17
2022-11-23T04:31:55.138Z,24.17
2022-11-23T04:34:41.363Z,25.27
2022-11-23T04:37:13.630Z,23.20
2022-11-23T04:39:44.030Z,22.67
2022-11-23T04:42:25.291Z,22.50
2022-11-23T04:44:57.993Z,27.20
2022-11-23T04:47:25.996Z,23.93
2022-11-23T04:49:54.822Z,23.50
2022-11-23T04:52:22.116Z,23.93
2022-11-23T04:54:51.268Z,23.87
2022-11-23T04:57:18.571Z,24.97
2022-11-23T04:59:48.222Z,29.33
2022-11-23T05:02:16.139Z,25.40
2022-11-23T05:04:54.611Z,22.67
2022-11-23T05:07:27.413Z,26.43
2022-11-23T05:09:58.573Z,27.30
2022-11-23T05:12:26.637Z,26.13
2022-11-23T05:14:53.924Z,26.43
2022-11-23T05:17:30.615Z,26.03
2022-11-23T05:19:58.920Z,27.50
2022-11-23T05:22:28.726Z,28.23
2022-11-23T05:24:56.127Z,23.80
2022-11-23T05:27:25.408Z,25.37
2022-11-23T05:29:52.646Z,29.73
2022-11-23T05:32:20.130Z,24.60
2022-11-23T05:34:47.830Z,24.00
2022-11-23T05:37:17.078Z,23.63
2022-11-23T05:39:56.793Z,26.20
2022-11-23T05:42:24.781Z,29.13
2022-11-23T05:44:55.677Z,26.93
2022-11-23T05:47:29.857Z,28.83
2022-11-23T05:49:57.608Z,28.53
2022-11-23T05:52:28.495Z,26.07
2022-11-23T05:54:55.809Z,29.13
2022-11-23T05:57:24.026Z,33.83
2022-11-23T05:59:52.294Z,24.77
2022-11-23T06:02:42.551Z,29.47
2022-11-23T06:05:11.331Z,27.20
2022-11-23T06:07:46.732Z,29.37
2022-11-23T06:10:14.584Z,27.30
2022-11-23T06:12:47.146Z,24.73
2022-11-23T06:15:17.949Z,23.60
2022-11-23T06:17:46.741Z,27.90
2022-11-23T06:20:18.641Z,26.13
2022-11-23T06:22:56.145Z,26.47
2022-11-23T06:25:25.573Z,27.97
2022-11-23T06:28:01.625Z,28.73
2022-11-23T06:30:39.736Z,37.60
2022-11-23T06:33:08.591Z,30.60
2022-11-23T06:35:42.967Z,26.50
2022-11-23T06:38:10.698Z,28.10
2022-11-23T06:40:39.359Z,28.03
2022-11-23T06:43:06.653Z,28.67
2022-11-23T06:45:43.779Z,27.23
2022-11-23T06:48:14.556Z,24.70
2022-11-23T06:50:46.142Z,29.20
2022-11-23T06:53:14.575Z,27.03
2022-11-23T06:55:49.088Z,26.47
2022-11-23T06:58:37.552Z,25.33
2022-11-23T07:01:10.220Z,29.60
2022-11-23T07:03:43.590Z,25.63
2022-11-23T07:06:22.259Z,28.10
2022-11-23T07:08:54.708Z,28.10
2022-11-23T07:11:36.611Z,27.23
2022-11-23T07:14:04.367Z,30.27
2022-11-23T07:16:32.074Z,26.27
2022-11-23T07:18:59.373Z,29.67
2022-11-23T07:21:26.650Z,28.73
2022-11-23T07:23:54.074Z,28.90
2022-11-23T07:26:21.497Z,31.90
2022-11-23T07:28:48.862Z,27.03
2022-11-23T07:31:16.704Z,23.97
2022-11-23T07:33:45.214Z,27.90
2022-11-23T07:36:12.899Z,28.53
2022-11-23T07:38:42.454Z,25.73
2022-11-23T07:41:11.715Z,25.37
2022-11-23T07:43:59.778Z,26.60
2022-11-23T07:46:27.367Z,25.63
2022-11-23T07:48:59.226Z,27.70
2022-11-23T07:51:26.440Z,26.70
2022-11-23T07:53:53.704Z,26.13
2022-11-23T07:56:21.482Z,25.53
2022-11-23T07:58:48.684Z,28.37
2022-11-23T08:01:19.657Z,23.80
2022-11-23T08:03:47.495Z,28.00
2022-11-23T08:06:15.531Z,24.67
2022-11-23T08:08:43.151Z,25.53
2022-11-23T08:11:11.192Z,22.63
2022-11-23T08:13:38.776Z,28.13
2022-11-23T08:16:06.807Z,26.83
2022-11-23T08:18:34.032Z,27.10
2022-11-23T08:21:01.461Z,26.30
2022-11-23T08:23:28.926Z,27.60
2022-11-23T08:25:56.388Z,26.43
2022-11-23T08:28:23.829Z,24.60
2022-11-23T08:30:51.293Z,22.40
2022-11-23T08:33:18.626Z,25.17
2022-11-23T08:35:45.958Z,23.77
2022-11-23T08:38:13.311Z,24.97
2022-11-23T08:40:40.677Z,22.93
2022-11-23T08:43:08.008Z,24.97
2022-11-23T08:45:35.287Z,24.83
2022-11-23T08:48:03.527Z,24.50
2022-11-23T08:50:31.348Z,26.87
2022-11-23T08:52:59.482Z,27.97
2022-11-23T08:55:27.649Z,24.77
2022-11-23T08:58:00.904Z,24.47
2022-11-23T09:00:49.413Z,22.60
2022-11-23T09:03:17.694Z,23.87
2022-11-23T09:05:44.883Z,24.27
2022-11-23T09:08:12.154Z,21.00
2022-11-23T09:10:39.782Z,22.60
2022-11-23T09:13:07.170Z,21.17
2022-11-23T09:15:34.623Z,20.53
2022-11-23T09:18:02.004Z,21.60
2022-11-23T09:20:30.520Z,22.80
2022-11-23T09:22:57.749Z,22.67
2022-11-23T09:25:25.148Z,24.20
2022-11-23T09:27:58.514Z,23.97
2022-11-23T09:30:25.823Z,23.07
2022-11-23T09:32:53.050Z,23.97
2022-11-23T09:35:20.336Z,21.30
2022-11-23T09:37:47.593Z,21.67
2022-11-23T09:40:19.633Z,20.30
2022-11-23T09:42:57.708Z,26.57
2022-11-23T09:45:34.212Z,20.53
2022-11-23T09:48:07.862Z,21.10
2022-11-23T09:50:48.694Z,21.53
2022-11-23T09:53:18.704Z,19.63
2022-11-23T09:55:47.753Z,20.63
2022-11-23T09:58:16.780Z,20.13
2022-11-23T10:00:49.456Z,22.93
2022-11-23T10:03:17.747Z,17.90
2022-11-23T10:06:03.358Z,18.47
2022-11-23T10:08:38.954Z,17.77
2022-11-23T10:11:24.511Z,18.83
2022-11-23T10:14:17.309Z,21.10
2022-11-23T10:16:44.490Z,17.57
2022-11-23T10:19:30.687Z,17.63
2022-11-23T10:22:11.445Z,18.63
2022-11-23T10:24:41.283Z,18.30
2022-11-23T10:27:16.368Z,17.80
2022-11-23T10:29:43.936Z,19.43
2022-11-23T10:32:37.501Z,19.47
2022-11-23T10:35:15.451Z,17.33
2022-11-23T10:37:43.048Z,17.53
2022-11-23T10:40:24.436Z,18.00
2022-11-23T10:42:59.319Z,15.90
2022-11-23T10:45:46.945Z,16.57
2022-11-23T10:48:14.529Z,16.93
2022-11-23T10:53:28.480Z,18.07
2022-11-23T10:55:59.840Z,15.20
2022-11-23T10:58:29.497Z,16.80
2022-11-23T11:01:07.825Z,16.93
2022-11-23T11:03:35.514Z,16.03
2022-11-23T11:06:11.419Z,13.07
2022-11-23T11:09:02.717Z,13.70
2022-11-23T11:11:34.850Z,13.40
2022-11-23T11:14:16.071Z,14.97
2022-11-23T11:16:49.495Z,12.17
2022-11-23T11:19:22.554Z,13.67
2022-11-23T11:21:49.825Z,11.17
2022-11-23T11:24:19.762Z,11.93
2022-11-23T11:26:58.534Z,13.73
2022-11-23T11:29:48.441Z,12.27
2022-11-23T11:32:24.392Z,13.77
2022-11-23T11:34:54.569Z,12.07
2022-11-23T11:37:41.994Z,11.33
2022-11-23T11:40:09.252Z,11.87
2022-11-23T11:42:45.226Z,14.03
2022-11-23T11:45:17.401Z,14.30
2022-11-23T11:47:48.516Z,11.97
2022-11-23T11:50:32.093Z,12.83
2022-11-23T11:53:08.301Z,12.57
2022-11-23T11:55:55.797Z,13.27
2022-11-23T11:58:25.040Z,13.70
2022-11-23T12:00:54.537Z,15.07
2022-11-23T12:03:28.093Z,13.03
2022-11-23T12:06:00.153Z,15.00
2022-11-23T12:08:45.910Z,13.37
2022-11-23T12:11:14.043Z,12.73
2022-11-23T12:13:43.473Z,13.50
2022-11-23T12:16:27.168Z,12.43
2022-11-23T12:19:02.945Z,13.27
2022-11-23T12:21:36.526Z,13.47
2022-11-23T12:24:18.977Z,12.13
2022-11-23T12:27:04.785Z,11.93
2022-11-23T12:29:32.646Z,12.37
2022-11-23T12:32:10.689Z,11.13
2022-11-23T12:34:53.002Z,11.23
2022-11-23T12:37:20.353Z,11.83
2022-11-23T12:39:47.724Z,12.33
2022-11-23T12:42:24.772Z,12.50
2022-11-23T12:44:55.026Z,12.57
2022-11-23T12:47:31.635Z,14.23
2022-11-23T12:50:31.515Z,13.87
2022-11-23T12:53:02.621Z,15.57
2022-11-23T12:55:45.310Z,14.80
2022-11-23T12:58:16.689Z,17.53
2022-11-23T13:01:04.789Z,16.53
2022-11-23T13:03:41.204Z,19.07
2022-11-23T13:06:15.019Z,14.27
2022-11-23T13:09:02.954Z,20.13
2022-11-23T13:11:52.195Z,17.03
2022-11-23T13:14:37.881Z,19.03
2022-11-23T13:17:05.518Z,19.73
2022-11-23T13:19:42.022Z,23.37
2022-11-23T13:22:15.425Z,21.07
2022-11-23T13:24:58.457Z,20.33
2022-11-23T13:27:31.922Z,21.63
2022-11-23T13:30:01.478Z,19.87
2022-11-23T13:32:43.066Z,22.47
2022-11-23T13:35:19.165Z,22.63
2022-11-23T13:37:55.271Z,22.20
2022-11-23T13:40:26.738Z,20.13
2022-11-23T13:42:55.400Z,21.20
2022-11-23T13:45:22.627Z,20.40
2022-11-23T13:48:05.224Z,19.57
2022-11-23T13:50:32.689Z,21.97
2022-11-23T13:53:00.791Z,20.63
2022-11-23T13:55:33.654Z,21.73
2022-11-23T13:58:19.849Z,22.47
2022-11-23T14:00:50.162Z,23.03
2022-11-23T14:03:36.294Z,24.73
2022-11-23T14:06:04.791Z,22.43
2022-11-23T14:08:33.755Z,21.63
2022-11-23T14:11:01.368Z,20.47
2022-11-23T14:13:33.936Z,22.60
2022-11-23T14:16:03.060Z,21.63
2022-11-23T14:18:45.763Z,23.60
2022-11-23T14:21:22.199Z,23.97
2022-11-23T14:24:15.903Z,22.17
2022-11-23T14:27:04.202Z,20.90
2022-11-23T14:30:05.149Z,23.47
2022-11-23T14:32:38.480Z,21.47
2022-11-23T14:35:21.208Z,24.87
2022-11-23T14:38:07.252Z,22.57
2022-11-23T14:40:53.348Z,24.23
2022-11-23T14:43:21.820Z,22.33
2022-11-23T14:45:49.564Z,22.27
2022-11-23T14:48:23.013Z,20.67
2022-11-23T14:51:16.449Z,23.40
2022-11-23T14:53:47.206Z,23.30
2022-11-23T14:56:33.544Z,20.50
2022-11-23T14:59:03.422Z,21.93
2022-11-23T15:01:31.261Z,23.00
2022-11-23T15:04:08.430Z,23.03
2022-11-23T15:06:39.655Z,23.37
2022-11-23T15:09:24.854Z,20.50
2022-11-23T15:11:52.108Z,21.33
2022-11-23T15:14:20.687Z,19.53
2022-11-23T15:16:49.371Z,21.63
2022-11-23T15:19:29.729Z,20.57
2022-11-23T15:21:57.867Z,22.60
2022-11-23T15:24:26.527Z,22.63
2022-11-23T15:26:54.547Z,20.37
2022-11-23T15:29:29.033Z,23.80
2022-11-23T15:32:22.456Z,20.83
2022-11-23T15:34:43.493Z,24.23
2022-11-23T15:37:10.939Z,21.50
2022-11-23T15:39:38.506Z,21.30
2022-11-23T15:42:05.871Z,22.57
2022-11-23T15:44:33.318Z,20.97
2022-11-23T15:47:01.880Z,22.83
2022-11-23T15:49:29.170Z,22.10
2022-11-23T15:52:00.078Z,24.07
2022-11-23T15:54:31.447Z,21.10
2022-11-23T15:56:58.938Z,24.80
2022-11-23T15:59:31.895Z,23.50
2022-11-23T16:02:01.716Z,23.57
2022-11-23T16:04:29.189Z,25.27
2022-11-23T16:06:57.206Z,25.77
2022-11-23T16:09:53.402Z,24.10
2022-11-23T16:12:21.109Z,24.47
2022-11-23T16:14:48.550Z,24.37
2022-11-23T16:17:23.814Z,26.73
2022-11-23T16:19:54.921Z,26.83
2022-11-23T16:22:25.262Z,25.50
2022-11-23T16:24:55.328Z,26.20
2022-11-23T16:27:25.607Z,27.43
2022-11-23T16:29:56.508Z,26.60
2022-11-23T16:32:31.639Z,27.40
2022-11-23T16:35:03.910Z,25.13
2022-11-23T16:37:31.120Z,28.03
2022-11-23T16:39:58.396Z,27.20
2022-11-23T16:42:27.026Z,26.00
2022-11-23T16:44:54.252Z,28.30
2022-11-23T16:47:25.962Z,31.00
2022-11-23T16:49:53.528Z,25.33
2022-11-23T16:52:21.771Z,25.77
2022-11-23T16:54:49.649Z,27.17
2022-11-23T16:57:37.165Z,25.60
2022-11-23T17:00:08.426Z,30.70
2022-11-23T17:02:36.869Z,26.90
2022-11-23T17:05:04.380Z,27.83
2022-11-23T17:07:31.671Z,25.97
2022-11-23T17:09:59.235Z,27.43
2022-11-23T17:12:26.574Z,84.33
2022-11-23T17:14:53.767Z,33.27
2022-11-23T17:17:22.181Z,27.30
2022-11-23T17:19:50.341Z,30.00
2022-11-23T17:22:18.446Z,31.13
2022-11-23T17:24:46.051Z,31.53
2022-11-23T17:27:14.892Z,29.33
2022-11-23T17:29:42.984Z,31.10
2022-11-23T17:32:11.504Z,29.30
2022-11-23T17:34:38.918Z,27.43
2022-11-23T17:37:06.529Z,28.63
2022-11-23T17:39:34.598Z,26.87
2022-11-23T17:42:05.055Z,27.77
2022-11-23T17:44:32.670Z,30.10
2022-11-23T17:47:00.544Z,31.13
2022-11-23T17:49:28.431Z,29.87
2022-11-23T17:51:58.667Z,28.00
2022-11-23T17:54:26.072Z,28.37
2022-11-23T17:56:53.367Z,26.27
2022-11-23T17:59:20.663Z,28.27
2022-11-23T18:01:48.149Z,28.53
2022-11-23T18:04:15.399Z,29.67
2022-11-23T18:06:42.775Z,29.47
2022-11-23T18:09:28.615Z,34.47
2022-11-23T18:11:56.075Z,30.80
2022-11-23T18:14:25.464Z,30.23
2022-11-23T18:16:52.694Z,31.67
2022-11-23T18:19:19.965Z,34.00
2022-11-23T18:21:47.941Z,32.83
2022-11-23T18:24:15.368Z,31.70
2022-11-23T18:26:42.977Z,33.63
2022-11-23T18:29:16.738Z,39.40
2022-11-23T18:31:44.432Z,38.13
2022-11-23T18:34:11.798Z,33.57
2022-11-23T18:36:38.981Z,38.50
2022-11-23T18:39:06.558Z,35.27
2022-11-23T18:41:33.845Z,36.90
2022-11-23T18:44:01.075Z,32.70
2022-11-23T18:46:29.826Z,34.47
2022-11-23T18:48:57.426Z,33.43
2022-11-23T18:51:26.172Z,38.30
2022-11-23T18:53:55.545Z,33.50
2022-11-23T18:56:22.889Z,36.30
2022-11-23T18:58:50.456Z,38.53
2022-11-23T19:01:19.446Z,37.27
2022-11-23T19:03:47.968Z,35.10
2022-11-23T19:06:16.767Z,36.07
2022-11-23T19:08:48.829Z,41.17
2022-11-23T19:11:20.056Z,33.70
2022-11-23T19:13:52.015Z,33.80
2022-11-23T19:16:23.846Z,34.63
2022-11-23T19:18:54.938Z,36.67
2022-11-23T19:21:24.082Z,36.27
2022-11-23T19:23:54.767Z,39.30
2022-11-23T19:26:22.389Z,36.43
2022-11-23T19:28:49.645Z,36.87
2022-11-23T19:31:24.626Z,38.37
2022-11-23T19:33:52.641Z,35.90
2022-11-23T19:36:21.287Z,37.97
2022-11-23T19:38:49.922Z,34.47
2022-11-23T19:41:18.597Z,35.57
2022-11-23T19:43:46.281Z,37.33
2022-11-23T19:46:14.452Z,35.17
2022-11-23T19:48:42.186Z,38.30
2022-11-23T19:51:13.898Z,39.67
2022-11-23T19:53:42.646Z,36.03
2022-11-23T19:56:14.222Z,37.30
2022-11-23T19:58:42.279Z,40.93
2022-11-23T20:01:32.685Z,36.87
2022-11-23T20:04:07.887Z,37.53
2022-11-23T20:06:37.129Z,39.07
2022-11-23T20:09:06.590Z,37.97
2022-11-23T20:11:34.518Z,37.57
2022-11-23T20:14:01.815Z,37.37
2022-11-23T20:16:31.067Z,39.40
2022-11-23T20:19:06.026Z,35.77
2022-11-23T20:21:33.891Z,38.03
2022-11-23T20:24:05.146Z,38.70
2022-11-23T20:26:33.194Z,36.83
2022-11-23T20:29:01.179Z,37.00
2022-11-23T20:31:29.503Z,38.20
2022-11-23T20:33:57.288Z,34.83
2022-11-23T20:36:24.573Z,36.67
2022-11-23T20:38:52.571Z,38.43
2022-11-23T20:41:26.232Z,39.33
2022-11-23T20:43:55.323Z,37.13
2022-11-23T20:46:45.543Z,37.23
2022-11-23T20:49:10.524Z,37.37
2022-11-23T20:51:37.969Z,39.03
2022-11-23T20:54:04.826Z,36.27
2022-11-23T20:56:32.320Z,38.43
2022-11-23T20:59:04.140Z,37.43
2022-11-23T21:01:31.132Z,40.67
2022-11-23T21:03:59.343Z,36.03
2022-11-23T21:06:28.615Z,35.23
2022-11-23T21:08:56.870Z,40.30
2022-11-23T21:11:47.253Z,40.03
2022-11-23T21:14:18.172Z,38.17
2022-11-23T21:16:55.612Z,36.67
2022-11-23T21:19:33.225Z,38.83
2022-11-23T21:22:03.793Z,40.83
2022-11-23T21:24:31.615Z,36.87
2022-11-23T21:26:59.513Z,34.43
2022-11-23T21:29:27.676Z,32.37
2022-11-23T21:31:55.119Z,38.83
2022-11-23T21:34:23.487Z,33.40
2022-11-23T21:36:51.443Z,34.23
2022-11-23T21:39:19.224Z,38.03
2022-11-23T21:41:47.519Z,33.73
2022-11-23T21:44:14.729Z,33.33
2022-11-23T21:46:42.531Z,38.63
2022-11-23T21:49:10.656Z,40.33
2022-11-23T21:51:38.635Z,39.83
2022-11-23T21:54:07.165Z,38.57
2022-11-23T21:56:34.499Z,36.00
2022-11-23T21:59:02.037Z,41.30
2022-11-23T22:01:48.250Z,38.13
2022-11-23T22:04:16.279Z,39.40
2022-11-23T22:06:45.246Z,38.03
2022-11-23T22:09:13.211Z,37.83
2022-11-23T22:11:41.817Z,38.50
2022-11-23T22:14:13.556Z,36.83
2022-11-23T22:16:45.114Z,35.97
2022-11-23T22:19:13.423Z,34.77
2022-11-23T22:21:41.472Z,41.90
2022-11-23T22:24:12.818Z,36.13
2022-11-23T22:26:40.236Z,36.67
2022-11-23T22:29:07.707Z,39.37
2022-11-23T22:31:36.089Z,37.03
2022-11-23T22:34:05.618Z,34.63
2022-11-23T22:36:33.192Z,37.43
2022-11-23T22:39:02.460Z,31.87
2022-11-23T22:41:30.463Z,36.00
2022-11-23T22:43:57.809Z,34.73
2022-11-23T22:46:25.799Z,38.67
2022-11-23T22:48:53.438Z,35.83
2022-11-23T22:51:21.892Z,38.30
2022-11-23T22:53:53.308Z,37.00
2022-11-23T22:56:20.893Z,33.50
2022-11-23T22:58:48.871Z,33.03
2022-11-23T23:01:17.611Z,39.03
2022-11-23T23:03:45.385Z,35.53
2022-11-23T23:06:17.240Z,31.83
2022-11-23T23:08:45.723Z,31.90
2022-11-23T23:11:13.369Z,33.63
2022-11-23T23:13:40.767Z,35.53
2022-11-23T23:16:09.269Z,31.30
2022-11-23T23:18:36.704Z,33.00
2022-11-23T23:21:11.463Z,35.70
2022-11-23T23:23:39.590Z,37.13
2022-11-23T23:26:07.213Z,39.00
2022-11-23T23:28:35.210Z,35.77
2022-11-23T23:31:03.515Z,37.17
2022-11-23T23:33:33.239Z,32.43
2022-11-23T23:36:26.904Z,33.67
2022-11-23T23:38:54.259Z,35.77
2022-11-23T23:41:21.753Z,35.10
2022-11-23T23:43:49.091Z,36.43
2022-11-23T23:46:16.485Z,32.43
2022-11-23T23:48:44.071Z,31.90
2022-11-23T23:51:15.901Z,33.20
2022-11-23T23:53:43.574Z,31.23
2022-11-23T23:56:15.136Z,29.70
2022-11-23T23:58:42.505Z,36.17
